sensor_id;sensor_type;location;lat;lon;timestamp;P1;durP1;ratioP1;P2;durP2;ratioP2
48588;SDS011;34369;51.174;6.738;2022-09-09T00:00:49;21.40;;;19.80;;
48588;SDS011;34369;51.174;6.738;2022-09-09T00:03:30;21.85;;;20.20;;
48588;SDS011;34369;51.174;6.738;2022-09-09T00:06:12;21.40;;;19.80;;
48588;SDS011;34369;51.174;6.738;2022-09-09T00:08:54;21.40;;;19.90;;
48588;SDS011;34369;51.174;6.738;2022-09-09T00:11:36;21.30;;;19.70;;
48588;SDS011;34369;51.174;6.738;2022-09-09T00:14:17;23.00;;;21.27;;
48588;SDS011;34369;51.174;6.738;2022-09-09T00:16:56;21.85;;;20.17;;
48588;SDS011;34369;51.174;6.738;2022-09-09T00:19:37;21.80;;;19.90;;
48588;SDS011;34369;51.174;6.738;2022-09-09T00:22:15;22.08;;;20.48;;
48588;SDS011;34369;51.174;6.738;2022-09-09T00:24:51;21.30;;;19.80;;
48588;SDS011;34369;51.174;6.738;2022-09-09T00:27:25;21.73;;;20.00;;
48588;SDS011;34369;51.174;6.738;2022-09-09T00:30:12;21.88;;;20.27;;
48588;SDS011;34369;51.174;6.738;2022-09-09T00:32:50;20.90;;;19.40;;
48588;SDS011;34369;51.174;6.738;2022-09-09T00:35:30;21.58;;;19.88;;
48588;SDS011;34369;51.174;6.738;2022-09-09T00:38:09;21.00;;;19.33;;
48588;SDS011;34369;51.174;6.738;2022-09-09T00:40:45;20.88;;;19.33;;
48588;SDS011;34369;51.174;6.738;2022-09-09T00:43:26;20.98;;;19.40;;
48588;SDS011;34369;51.174;6.738;2022-09-09T00:49:00;21.25;;;19.65;;
48588;SDS011;34369;51.174;6.738;2022-09-09T00:51:44;21.00;;;19.38;;
48588;SDS011;34369;51.174;6.738;2022-09-09T00:54:28;21.52;;;19.83;;
48588;SDS011;34369;51.174;6.738;2022-09-09T00:57:18;21.30;;;19.70;;
48588;SDS011;34369;51.174;6.738;2022-09-09T01:00:15;22.10;;;20.50;;
48588;SDS011;34369;51.174;6.738;2022-09-09T01:02:53;21.63;;;20.00;;
48588;SDS011;34369;51.174;6.738;2022-09-09T01:05:43;22.20;;;20.50;;
48588;SDS011;34369;51.174;6.738;2022-09-09T01:08:30;21.35;;;19.65;;
48588;SDS011;34369;51.174;6.738;2022-09-09T01:11:15;22.05;;;20.45;;
48588;SDS011;34369;51.174;6.738;2022-09-09T01:13:55;22.02;;;20.42;;
48588;SDS011;34369;51.174;6.738;2022-09-09T01:16:33;22.10;;;20.40;;
48588;SDS011;34369;51.174;6.738;2022-09-09T01:19:05;21.55;;;19.95;;
48588;SDS011;34369;51.174;6.738;2022-09-09T01:22:00;22.10;;;20.50;;
48588;SDS011;34369;51.174;6.738;2022-09-09T01:24:45;22.58;;;20.88;;
48588;SDS011;34369;51.174;6.738;2022-09-09T01:27:52;21.52;;;20.02;;
48588;SDS011;34369;51.174;6.738;2022-09-09T01:30:27;21.58;;;20.08;;
48588;SDS011;34369;51.174;6.738;2022-09-09T01:32:59;22.55;;;20.70;;
48588;SDS011;34369;51.174;6.738;2022-09-09T01:35:35;21.17;;;19.58;;
48588;SDS011;34369;51.174;6.738;2022-09-09T01:38:14;21.70;;;20.00;;
48588;SDS011;34369;51.174;6.738;2022-09-09T01:40:46;21.33;;;19.73;;
48588;SDS011;34369;51.174;6.738;2022-09-09T01:43:20;21.02;;;19.42;;
48588;SDS011;34369;51.174;6.738;2022-09-09T01:45:54;21.33;;;19.73;;
48588;SDS011;34369;51.174;6.738;2022-09-09T01:48:30;22.77;;;21.02;;
48588;SDS011;34369;51.174;6.738;2022-09-09T01:51:03;21.15;;;19.55;;
48588;SDS011;34369;51.174;6.738;2022-09-09T01:53:36;21.45;;;19.75;;
48588;SDS011;34369;51.174;6.738;2022-09-09T01:56:12;21.90;;;20.25;;
48588;SDS011;34369;51.174;6.738;2022-09-09T01:59:00;21.13;;;19.50;;
48588;SDS011;34369;51.174;6.738;2022-09-09T02:01:44;20.95;;;19.33;;
48588;SDS011;34369;51.174;6.738;2022-09-09T02:04:36;21.00;;;19.40;;
48588;SDS011;34369;51.174;6.738;2022-09-09T02:07:15;22.25;;;20.38;;
48588;SDS011;34369;51.174;6.738;2022-09-09T02:10:02;21.85;;;20.25;;
48588;SDS011;34369;51.174;6.738;2022-09-09T02:12:43;21.98;;;20.20;;
48588;SDS011;34369;51.174;6.738;2022-09-09T02:15:21;21.48;;;19.88;;
48588;SDS011;34369;51.174;6.738;2022-09-09T02:17:59;20.73;;;19.23;;
48588;SDS011;34369;51.174;6.738;2022-09-09T02:20:37;21.50;;;19.70;;
48588;SDS011;34369;51.174;6.738;2022-09-09T02:23:10;21.73;;;20.13;;
48588;SDS011;34369;51.174;6.738;2022-09-09T02:25:44;21.80;;;20.10;;
48588;SDS011;34369;51.174;6.738;2022-09-09T02:28:17;21.75;;;20.15;;
48588;SDS011;34369;51.174;6.738;2022-09-09T02:30:52;22.17;;;20.45;;
48588;SDS011;34369;51.174;6.738;2022-09-09T02:33:26;21.90;;;20.23;;
48588;SDS011;34369;51.174;6.738;2022-09-09T02:36:00;21.40;;;19.80;;
48588;SDS011;34369;51.174;6.738;2022-09-09T02:38:37;22.13;;;20.20;;
48588;SDS011;34369;51.174;6.738;2022-09-09T02:41:20;21.10;;;19.60;;
48588;SDS011;34369;51.174;6.738;2022-09-09T02:43:59;22.00;;;20.25;;
48588;SDS011;34369;51.174;6.738;2022-09-09T02:46:36;22.20;;;20.25;;
48588;SDS011;34369;51.174;6.738;2022-09-09T02:49:35;21.33;;;19.73;;
48588;SDS011;34369;51.174;6.738;2022-09-09T02:52:20;22.08;;;20.48;;
48588;SDS011;34369;51.174;6.738;2022-09-09T02:54:59;21.80;;;20.15;;
48588;SDS011;34369;51.174;6.738;2022-09-09T02:57:39;21.63;;;19.92;;
48588;SDS011;34369;51.174;6.738;2022-09-09T03:00:15;21.10;;;19.40;;
48588;SDS011;34369;51.174;6.738;2022-09-09T03:02:49;21.60;;;19.90;;
48588;SDS011;34369;51.174;6.738;2022-09-09T03:05:21;22.35;;;20.50;;
48588;SDS011;34369;51.174;6.738;2022-09-09T03:07:53;20.98;;;19.48;;
48588;SDS011;34369;51.174;6.738;2022-09-09T03:10:25;21.83;;;20.23;;
48588;SDS011;34369;51.174;6.738;2022-09-09T03:12:57;21.77;;;20.17;;
48588;SDS011;34369;51.174;6.738;2022-09-09T03:15:29;21.05;;;19.50;;
48588;SDS011;34369;51.174;6.738;2022-09-09T03:18:03;21.35;;;19.65;;
48588;SDS011;34369;51.174;6.738;2022-09-09T03:20:34;21.60;;;20.00;;
48588;SDS011;34369;51.174;6.738;2022-09-09T03:23:06;20.63;;;19.13;;
48588;SDS011;34369;51.174;6.738;2022-09-09T03:25:39;21.48;;;19.77;;
48588;SDS011;34369;51.174;6.738;2022-09-09T03:28:10;21.17;;;19.58;;
48588;SDS011;34369;51.174;6.738;2022-09-09T03:30:43;21.30;;;19.60;;
48588;SDS011;34369;51.174;6.738;2022-09-09T03:33:16;20.52;;;18.88;;
48588;SDS011;34369;51.174;6.738;2022-09-09T03:35:48;21.90;;;20.20;;
48588;SDS011;34369;51.174;6.738;2022-09-09T03:38:20;20.73;;;19.23;;
48588;SDS011;34369;51.174;6.738;2022-09-09T03:40:53;21.23;;;19.50;;
48588;SDS011;34369;51.174;6.738;2022-09-09T03:43:27;21.45;;;19.65;;
48588;SDS011;34369;51.174;6.738;2022-09-09T03:46:00;21.60;;;20.00;;
48588;SDS011;34369;51.174;6.738;2022-09-09T03:48:34;20.98;;;19.27;;
48588;SDS011;34369;51.174;6.738;2022-09-09T03:51:05;21.60;;;19.80;;
48588;SDS011;34369;51.174;6.738;2022-09-09T03:53:37;21.90;;;20.10;;
48588;SDS011;34369;51.174;6.738;2022-09-09T03:56:09;21.40;;;19.80;;
48588;SDS011;34369;51.174;6.738;2022-09-09T03:58:41;21.27;;;19.63;;
48588;SDS011;34369;51.174;6.738;2022-09-09T04:01:13;21.88;;;20.17;;
48588;SDS011;34369;51.174;6.738;2022-09-09T04:03:49;20.98;;;19.35;;
48588;SDS011;34369;51.174;6.738;2022-09-09T04:06:22;21.00;;;19.30;;
48588;SDS011;34369;51.174;6.738;2022-09-09T04:08:55;20.95;;;19.35;;
48588;SDS011;34369;51.174;6.738;2022-09-09T04:11:27;20.75;;;19.20;;
48588;SDS011;34369;51.174;6.738;2022-09-09T04:14:00;21.80;;;20.00;;
48588;SDS011;34369;51.174;6.738;2022-09-09T04:16:32;21.20;;;19.30;;
48588;SDS011;34369;51.174;6.738;2022-09-09T04:19:06;22.27;;;20.60;;
48588;SDS011;34369;51.174;6.738;2022-09-09T04:21:38;21.67;;;19.88;;
48588;SDS011;34369;51.174;6.738;2022-09-09T04:24:10;21.77;;;20.05;;
48588;SDS011;34369;51.174;6.738;2022-09-09T04:26:43;21.70;;;20.10;;
48588;SDS011;34369;51.174;6.738;2022-09-09T04:29:15;22.20;;;20.60;;
48588;SDS011;34369;51.174;6.738;2022-09-09T04:31:47;20.88;;;19.08;;
48588;SDS011;34369;51.174;6.738;2022-09-09T04:34:20;22.10;;;20.40;;
48588;SDS011;34369;51.174;6.738;2022-09-09T04:36:52;21.48;;;19.77;;
48588;SDS011;34369;51.174;6.738;2022-09-09T04:39:24;21.65;;;19.95;;
48588;SDS011;34369;51.174;6.738;2022-09-09T04:41:56;21.65;;;19.95;;
48588;SDS011;34369;51.174;6.738;2022-09-09T04:44:28;22.15;;;20.48;;
48588;SDS011;34369;51.174;6.738;2022-09-09T04:47:00;21.73;;;19.92;;
48588;SDS011;34369;51.174;6.738;2022-09-09T04:49:34;22.08;;;20.27;;
48588;SDS011;34369;51.174;6.738;2022-09-09T04:52:06;22.05;;;20.08;;
48588;SDS011;34369;51.174;6.738;2022-09-09T04:54:38;22.27;;;20.42;;
48588;SDS011;34369;51.174;6.738;2022-09-09T04:57:10;21.55;;;19.77;;
48588;SDS011;34369;51.174;6.738;2022-09-09T04:59:42;22.20;;;20.42;;
48588;SDS011;34369;51.174;6.738;2022-09-09T05:02:15;22.20;;;20.40;;
48588;SDS011;34369;51.174;6.738;2022-09-09T05:04:49;21.38;;;19.77;;
48588;SDS011;34369;51.174;6.738;2022-09-09T05:07:21;21.85;;;20.15;;
48588;SDS011;34369;51.174;6.738;2022-09-09T05:09:53;21.60;;;19.88;;
48588;SDS011;34369;51.174;6.738;2022-09-09T05:12:26;22.00;;;20.10;;
48588;SDS011;34369;51.174;6.738;2022-09-09T05:14:58;21.20;;;19.50;;
48588;SDS011;34369;51.174;6.738;2022-09-09T05:17:30;21.88;;;20.17;;
48588;SDS011;34369;51.174;6.738;2022-09-09T05:20:05;22.25;;;20.55;;
48588;SDS011;34369;51.174;6.738;2022-09-09T05:22:39;21.10;;;19.38;;
48588;SDS011;34369;51.174;6.738;2022-09-09T05:25:11;21.83;;;20.02;;
48588;SDS011;34369;51.174;6.738;2022-09-09T05:27:43;22.00;;;20.30;;
48588;SDS011;34369;51.174;6.738;2022-09-09T05:30:15;21.77;;;20.00;;
48588;SDS011;34369;51.174;6.738;2022-09-09T05:32:48;21.20;;;19.60;;
48588;SDS011;34369;51.174;6.738;2022-09-09T05:35:22;21.30;;;19.30;;
48588;SDS011;34369;51.174;6.738;2022-09-09T05:37:54;21.88;;;19.98;;
48588;SDS011;34369;51.174;6.738;2022-09-09T05:40:31;21.60;;;19.90;;
48588;SDS011;34369;51.174;6.738;2022-09-09T05:43:03;22.15;;;20.35;;
48588;SDS011;34369;51.174;6.738;2022-09-09T05:45:35;22.20;;;20.20;;
48588;SDS011;34369;51.174;6.738;2022-09-09T05:48:07;21.50;;;19.70;;
48588;SDS011;34369;51.174;6.738;2022-09-09T05:50:40;20.83;;;19.13;;
48588;SDS011;34369;51.174;6.738;2022-09-09T05:53:13;21.80;;;20.10;;
48588;SDS011;34369;51.174;6.738;2022-09-09T05:55:45;21.63;;;19.85;;
48588;SDS011;34369;51.174;6.738;2022-09-09T05:58:18;20.80;;;19.10;;
48588;SDS011;34369;51.174;6.738;2022-09-09T06:00:50;21.08;;;19.42;;
48588;SDS011;34369;51.174;6.738;2022-09-09T06:03:22;21.88;;;20.05;;
48588;SDS011;34369;51.174;6.738;2022-09-09T06:05:58;20.42;;;18.75;;
48588;SDS011;34369;51.174;6.738;2022-09-09T06:08:32;20.80;;;19.15;;
48588;SDS011;34369;51.174;6.738;2022-09-09T06:11:07;21.30;;;19.60;;
48588;SDS011;34369;51.174;6.738;2022-09-09T06:13:41;21.63;;;19.73;;
48588;SDS011;34369;51.174;6.738;2022-09-09T06:16:14;20.50;;;18.80;;
48588;SDS011;34369;51.174;6.738;2022-09-09T06:18:48;21.90;;;19.98;;
48588;SDS011;34369;51.174;6.738;2022-09-09T06:21:23;21.00;;;19.20;;
48588;SDS011;34369;51.174;6.738;2022-09-09T06:23:57;21.05;;;19.20;;
48588;SDS011;34369;51.174;6.738;2022-09-09T06:26:29;21.25;;;19.45;;
48588;SDS011;34369;51.174;6.738;2022-09-09T06:29:02;20.45;;;18.90;;
48588;SDS011;34369;51.174;6.738;2022-09-09T06:31:36;20.70;;;19.10;;
48588;SDS011;34369;51.174;6.738;2022-09-09T06:34:08;21.25;;;19.55;;
48588;SDS011;34369;51.174;6.738;2022-09-09T06:36:42;20.30;;;18.58;;
48588;SDS011;34369;51.174;6.738;2022-09-09T06:39:15;21.13;;;19.33;;
48588;SDS011;34369;51.174;6.738;2022-09-09T06:41:47;21.35;;;19.50;;
48588;SDS011;34369;51.174;6.738;2022-09-09T06:44:19;20.60;;;18.88;;
48588;SDS011;34369;51.174;6.738;2022-09-09T06:46:52;20.63;;;18.92;;
48588;SDS011;34369;51.174;6.738;2022-09-09T06:49:25;21.58;;;19.80;;
48588;SDS011;34369;51.174;6.738;2022-09-09T06:51:58;21.23;;;19.23;;
48588;SDS011;34369;51.174;6.738;2022-09-09T06:54:30;20.80;;;18.75;;
48588;SDS011;34369;51.174;6.738;2022-09-09T06:57:02;20.73;;;19.05;;
48588;SDS011;34369;51.174;6.738;2022-09-09T06:59:37;20.33;;;18.70;;
48588;SDS011;34369;51.174;6.738;2022-09-09T07:02:09;20.67;;;19.00;;
48588;SDS011;34369;51.174;6.738;2022-09-09T07:04:41;21.90;;;19.90;;
48588;SDS011;34369;51.174;6.738;2022-09-09T07:07:14;20.73;;;18.85;;
48588;SDS011;34369;51.174;6.738;2022-09-09T07:09:47;19.77;;;18.15;;
48588;SDS011;34369;51.174;6.738;2022-09-09T07:12:20;20.27;;;18.48;;
48588;SDS011;34369;51.174;6.738;2022-09-09T07:14:52;19.85;;;18.23;;
48588;SDS011;34369;51.174;6.738;2022-09-09T07:17:25;19.80;;;18.00;;
48588;SDS011;34369;51.174;6.738;2022-09-09T07:19:58;19.75;;;18.10;;
48588;SDS011;34369;51.174;6.738;2022-09-09T07:22:31;19.70;;;18.10;;
48588;SDS011;34369;51.174;6.738;2022-09-09T07:25:04;19.50;;;17.90;;
48588;SDS011;34369;51.174;6.738;2022-09-09T07:27:40;20.23;;;18.45;;
48588;SDS011;34369;51.174;6.738;2022-09-09T07:30:12;20.02;;;18.20;;
48588;SDS011;34369;51.174;6.738;2022-09-09T07:32:44;19.40;;;17.70;;
48588;SDS011;34369;51.174;6.738;2022-09-09T07:35:16;19.75;;;17.90;;
48588;SDS011;34369;51.174;6.738;2022-09-09T07:37:50;19.00;;;17.30;;
48588;SDS011;34369;51.174;6.738;2022-09-09T07:42:57;19.83;;;18.02;;
48588;SDS011;34369;51.174;6.738;2022-09-09T07:45:30;19.63;;;17.85;;
48588;SDS011;34369;51.174;6.738;2022-09-09T07:48:02;19.60;;;18.00;;
48588;SDS011;34369;51.174;6.738;2022-09-09T07:50:36;19.80;;;18.02;;
48588;SDS011;34369;51.174;6.738;2022-09-09T07:53:15;19.92;;;18.33;;
48588;SDS011;34369;51.174;6.738;2022-09-09T07:55:47;19.67;;;17.98;;
48588;SDS011;34369;51.174;6.738;2022-09-09T07:58:20;19.90;;;18.13;;
48588;SDS011;34369;51.174;6.738;2022-09-09T08:00:55;19.50;;;17.48;;
48588;SDS011;34369;51.174;6.738;2022-09-09T08:03:28;19.77;;;17.83;;
48588;SDS011;34369;51.174;6.738;2022-09-09T08:06:01;19.83;;;18.13;;
48588;SDS011;34369;51.174;6.738;2022-09-09T08:08:44;20.25;;;18.63;;
48588;SDS011;34369;51.174;6.738;2022-09-09T08:11:22;20.40;;;18.70;;
48588;SDS011;34369;51.174;6.738;2022-09-09T08:13:57;19.80;;;18.20;;
48588;SDS011;34369;51.174;6.738;2022-09-09T08:16:31;19.38;;;17.58;;
48588;SDS011;34369;51.174;6.738;2022-09-09T08:19:06;20.63;;;18.90;;
48588;SDS011;34369;51.174;6.738;2022-09-09T08:21:40;20.40;;;18.70;;
48588;SDS011;34369;51.174;6.738;2022-09-09T08:24:14;19.95;;;18.15;;
48588;SDS011;34369;51.174;6.738;2022-09-09T08:26:48;21.65;;;19.75;;
48588;SDS011;34369;51.174;6.738;2022-09-09T08:29:21;18.98;;;17.38;;
48588;SDS011;34369;51.174;6.738;2022-09-09T08:31:55;18.85;;;17.13;;
48588;SDS011;34369;51.174;6.738;2022-09-09T08:34:30;19.05;;;17.55;;
48588;SDS011;34369;51.174;6.738;2022-09-09T08:37:02;18.95;;;17.20;;
48588;SDS011;34369;51.174;6.738;2022-09-09T08:39:36;18.73;;;16.92;;
48588;SDS011;34369;51.174;6.738;2022-09-09T08:42:13;19.00;;;17.40;;
48588;SDS011;34369;51.174;6.738;2022-09-09T08:45:12;18.33;;;16.77;;
48588;SDS011;34369;51.174;6.738;2022-09-09T08:47:56;18.98;;;17.27;;
48588;SDS011;34369;51.174;6.738;2022-09-09T08:50:44;18.50;;;16.80;;
48588;SDS011;34369;51.174;6.738;2022-09-09T08:53:20;18.53;;;16.93;;
48588;SDS011;34369;51.174;6.738;2022-09-09T08:56:00;19.52;;;17.75;;
48588;SDS011;34369;51.174;6.738;2022-09-09T08:58:42;18.73;;;17.03;;
48588;SDS011;34369;51.174;6.738;2022-09-09T09:07:41;18.42;;;16.73;;
48588;SDS011;34369;51.174;6.738;2022-09-09T09:10:34;18.77;;;17.08;;
48588;SDS011;34369;51.174;6.738;2022-09-09T09:15:55;18.63;;;17.02;;
48588;SDS011;34369;51.174;6.738;2022-09-09T09:18:31;19.48;;;17.65;;
48588;SDS011;34369;51.174;6.738;2022-09-09T09:21:06;19.15;;;17.55;;
48588;SDS011;34369;51.174;6.738;2022-09-09T09:23:45;19.00;;;17.20;;
48588;SDS011;34369;51.174;6.738;2022-09-09T09:26:28;18.73;;;17.23;;
48588;SDS011;34369;51.174;6.738;2022-09-09T09:31:47;19.10;;;17.50;;
48588;SDS011;34369;51.174;6.738;2022-09-09T09:34:25;18.98;;;17.15;;
48588;SDS011;34369;51.174;6.738;2022-09-09T09:37:00;17.65;;;16.15;;
48588;SDS011;34369;51.174;6.738;2022-09-09T09:39:44;17.60;;;15.90;;
48588;SDS011;34369;51.174;6.738;2022-09-09T09:42:17;17.02;;;15.63;;
48588;SDS011;34369;51.174;6.738;2022-09-09T09:44:52;17.30;;;15.70;;
48588;SDS011;34369;51.174;6.738;2022-09-09T09:47:24;17.02;;;15.55;;
48588;SDS011;34369;51.174;6.738;2022-09-09T09:49:57;17.08;;;15.55;;
48588;SDS011;34369;51.174;6.738;2022-09-09T09:52:32;16.92;;;15.32;;
48588;SDS011;34369;51.174;6.738;2022-09-09T09:55:11;16.60;;;15.00;;
48588;SDS011;34369;51.174;6.738;2022-09-09T09:57:47;17.00;;;14.80;;
48588;SDS011;34369;51.174;6.738;2022-09-09T10:00:22;16.52;;;14.95;;
48588;SDS011;34369;51.174;6.738;2022-09-09T10:02:59;16.80;;;15.23;;
48588;SDS011;34369;51.174;6.738;2022-09-09T10:05:35;16.98;;;15.18;;
48588;SDS011;34369;51.174;6.738;2022-09-09T10:08:19;20.92;;;15.77;;
48588;SDS011;34369;51.174;6.738;2022-09-09T10:11:00;20.55;;;15.77;;
48588;SDS011;34369;51.174;6.738;2022-09-09T10:13:47;20.83;;;15.45;;
48588;SDS011;34369;51.174;6.738;2022-09-09T10:16:33;17.08;;;15.30;;
48588;SDS011;34369;51.174;6.738;2022-09-09T10:19:19;22.08;;;15.57;;
48588;SDS011;34369;51.174;6.738;2022-09-09T10:22:13;17.60;;;15.70;;
48588;SDS011;34369;51.174;6.738;2022-09-09T10:25:01;25.00;;;15.65;;
48588;SDS011;34369;51.174;6.738;2022-09-09T10:28:00;17.65;;;15.55;;
48588;SDS011;34369;51.174;6.738;2022-09-09T10:31:04;24.58;;;16.33;;
48588;SDS011;34369;51.174;6.738;2022-09-09T10:33:55;30.95;;;17.50;;
48588;SDS011;34369;51.174;6.738;2022-09-09T10:36:37;26.25;;;15.75;;
48588;SDS011;34369;51.174;6.738;2022-09-09T10:39:17;17.38;;;15.55;;
48588;SDS011;34369;51.174;6.738;2022-09-09T10:42:05;16.30;;;14.90;;
48588;SDS011;34369;51.174;6.738;2022-09-09T10:44:47;17.00;;;15.40;;
48588;SDS011;34369;51.174;6.738;2022-09-09T10:47:46;17.33;;;15.90;;
48588;SDS011;34369;51.174;6.738;2022-09-09T10:53:36;16.88;;;15.48;;
48588;SDS011;34369;51.174;6.738;2022-09-09T10:56:21;17.55;;;16.05;;
48588;SDS011;34369;51.174;6.738;2022-09-09T10:58:56;17.85;;;16.10;;
48588;SDS011;34369;51.174;6.738;2022-09-09T11:01:36;17.00;;;15.60;;
48588;SDS011;34369;51.174;6.738;2022-09-09T11:07:20;17.02;;;15.60;;
48588;SDS011;34369;51.174;6.738;2022-09-09T11:10:03;17.63;;;16.23;;
48588;SDS011;34369;51.174;6.738;2022-09-09T11:12:51;17.77;;;16.00;;
48588;SDS011;34369;51.174;6.738;2022-09-09T11:15:30;16.75;;;15.45;;
48588;SDS011;34369;51.174;6.738;2022-09-09T11:18:11;17.30;;;15.90;;
48588;SDS011;34369;51.174;6.738;2022-09-09T11:20:51;17.00;;;15.55;;
48588;SDS011;34369;51.174;6.738;2022-09-09T11:23:34;17.40;;;16.00;;
48588;SDS011;34369;51.174;6.738;2022-09-09T11:26:15;17.50;;;16.10;;
48588;SDS011;34369;51.174;6.738;2022-09-09T11:29:01;17.40;;;16.00;;
48588;SDS011;34369;51.174;6.738;2022-09-09T11:32:01;17.20;;;15.80;;
48588;SDS011;34369;51.174;6.738;2022-09-09T11:34:51;16.50;;;15.10;;
48588;SDS011;34369;51.174;6.738;2022-09-09T11:37:35;16.60;;;15.18;;
48588;SDS011;34369;51.174;6.738;2022-09-09T11:40:27;16.38;;;14.98;;
48588;SDS011;34369;51.174;6.738;2022-09-09T11:43:05;16.75;;;15.35;;
48588;SDS011;34369;51.174;6.738;2022-09-09T11:45:49;16.65;;;15.13;;
48588;SDS011;34369;51.174;6.738;2022-09-09T11:48:28;17.23;;;15.70;;
48588;SDS011;34369;51.174;6.738;2022-09-09T11:51:05;16.90;;;15.40;;
48588;SDS011;34369;51.174;6.738;2022-09-09T11:56:25;17.60;;;16.10;;
48588;SDS011;34369;51.174;6.738;2022-09-09T11:59:04;17.33;;;15.90;;
48588;SDS011;34369;51.174;6.738;2022-09-09T12:01:49;17.30;;;15.80;;
48588;SDS011;34369;51.174;6.738;2022-09-09T12:04:31;17.80;;;16.20;;
48588;SDS011;34369;51.174;6.738;2022-09-09T12:07:38;16.85;;;15.45;;
48588;SDS011;34369;51.174;6.738;2022-09-09T12:10:23;16.40;;;14.93;;
48588;SDS011;34369;51.174;6.738;2022-09-09T12:13:16;16.80;;;15.27;;
48588;SDS011;34369;51.174;6.738;2022-09-09T12:15:57;16.42;;;14.93;;
48588;SDS011;34369;51.174;6.738;2022-09-09T12:18:36;16.60;;;15.10;;
48588;SDS011;34369;51.174;6.738;2022-09-09T12:21:14;16.50;;;15.00;;
48588;SDS011;34369;51.174;6.738;2022-09-09T12:23:53;16.08;;;14.68;;
48588;SDS011;34369;51.174;6.738;2022-09-09T12:26:32;16.80;;;15.40;;
48588;SDS011;34369;51.174;6.738;2022-09-09T12:29:11;16.95;;;15.60;;
48588;SDS011;34369;51.174;6.738;2022-09-09T12:31:56;15.85;;;14.45;;
48588;SDS011;34369;51.174;6.738;2022-09-09T12:34:36;16.77;;;15.38;;
48588;SDS011;34369;51.174;6.738;2022-09-09T12:37:14;17.63;;;16.13;;
48588;SDS011;34369;51.174;6.738;2022-09-09T12:39:57;16.92;;;15.45;;
48588;SDS011;34369;51.174;6.738;2022-09-09T12:42:39;17.23;;;15.63;;
48588;SDS011;34369;51.174;6.738;2022-09-09T12:45:15;17.50;;;15.98;;
48588;SDS011;34369;51.174;6.738;2022-09-09T12:47:51;17.00;;;15.60;;
48588;SDS011;34369;51.174;6.738;2022-09-09T12:50:29;16.98;;;15.48;;
48588;SDS011;34369;51.174;6.738;2022-09-09T12:53:21;17.27;;;15.68;;
48588;SDS011;34369;51.174;6.738;2022-09-09T12:55:57;16.63;;;15.23;;
48588;SDS011;34369;51.174;6.738;2022-09-09T12:58:35;17.17;;;15.68;;
48588;SDS011;34369;51.174;6.738;2022-09-09T13:01:18;16.67;;;15.27;;
48588;SDS011;34369;51.174;6.738;2022-09-09T13:03:57;16.63;;;15.17;;
48588;SDS011;34369;51.174;6.738;2022-09-09T13:06:31;15.15;;;13.85;;
48588;SDS011;34369;51.174;6.738;2022-09-09T13:09:04;15.82;;;14.40;;
48588;SDS011;34369;51.174;6.738;2022-09-09T13:11:38;16.15;;;14.50;;
48588;SDS011;34369;51.174;6.738;2022-09-09T13:14:14;15.48;;;14.13;;
48588;SDS011;34369;51.174;6.738;2022-09-09T13:16:57;15.98;;;14.57;;
48588;SDS011;34369;51.174;6.738;2022-09-09T13:19:39;16.02;;;14.57;;
48588;SDS011;34369;51.174;6.738;2022-09-09T13:22:20;15.52;;;14.13;;
48588;SDS011;34369;51.174;6.738;2022-09-09T13:25:04;16.55;;;15.15;;
48588;SDS011;34369;51.174;6.738;2022-09-09T13:27:54;16.40;;;14.90;;
48588;SDS011;34369;51.174;6.738;2022-09-09T13:30:34;16.45;;;15.05;;
48588;SDS011;34369;51.174;6.738;2022-09-09T13:33:21;16.00;;;14.70;;
48588;SDS011;34369;51.174;6.738;2022-09-09T13:35:58;16.10;;;14.70;;
48588;SDS011;34369;51.174;6.738;2022-09-09T13:38:53;16.63;;;15.18;;
48588;SDS011;34369;51.174;6.738;2022-09-09T13:41:35;16.10;;;14.65;;
48588;SDS011;34369;51.174;6.738;2022-09-09T13:44:17;16.35;;;14.95;;
48588;SDS011;34369;51.174;6.738;2022-09-09T13:47:00;16.42;;;14.93;;
48588;SDS011;34369;51.174;6.738;2022-09-09T13:49:37;16.50;;;15.00;;
48588;SDS011;34369;51.174;6.738;2022-09-09T13:52:12;17.40;;;15.90;;
48588;SDS011;34369;51.174;6.738;2022-09-09T13:54:47;17.15;;;15.75;;
48588;SDS011;34369;51.174;6.738;2022-09-09T13:57:21;17.15;;;15.73;;
48588;SDS011;34369;51.174;6.738;2022-09-09T13:59:55;17.50;;;16.00;;
48588;SDS011;34369;51.174;6.738;2022-09-09T14:02:28;16.85;;;15.45;;
48588;SDS011;34369;51.174;6.738;2022-09-09T14:05:12;17.35;;;15.95;;
48588;SDS011;34369;51.174;6.738;2022-09-09T14:07:55;17.30;;;15.70;;
48588;SDS011;34369;51.174;6.738;2022-09-09T14:10:30;17.75;;;16.10;;
48588;SDS011;34369;51.174;6.738;2022-09-09T14:13:07;16.88;;;15.48;;
48588;SDS011;34369;51.174;6.738;2022-09-09T14:15:40;17.50;;;16.00;;
48588;SDS011;34369;51.174;6.738;2022-09-09T14:18:12;17.15;;;15.70;;
48588;SDS011;34369;51.174;6.738;2022-09-09T14:20:44;17.00;;;15.60;;
48588;SDS011;34369;51.174;6.738;2022-09-09T14:23:18;17.60;;;16.10;;
48588;SDS011;34369;51.174;6.738;2022-09-09T14:25:52;17.17;;;15.77;;
48588;SDS011;34369;51.174;6.738;2022-09-09T14:28:24;17.40;;;15.88;;
48588;SDS011;34369;51.174;6.738;2022-09-09T14:30:58;18.00;;;16.50;;
48588;SDS011;34369;51.174;6.738;2022-09-09T14:33:31;18.08;;;16.60;;
48588;SDS011;34369;51.174;6.738;2022-09-09T14:36:04;17.35;;;15.88;;
48588;SDS011;34369;51.174;6.738;2022-09-09T14:38:41;18.15;;;16.75;;
48588;SDS011;34369;51.174;6.738;2022-09-09T14:41:14;18.33;;;16.70;;
48588;SDS011;34369;51.174;6.738;2022-09-09T14:43:48;18.60;;;17.00;;
48588;SDS011;34369;51.174;6.738;2022-09-09T14:46:21;18.85;;;17.35;;
48588;SDS011;34369;51.174;6.738;2022-09-09T14:48:54;18.50;;;17.10;;
48588;SDS011;34369;51.174;6.738;2022-09-09T14:51:26;18.48;;;16.98;;
48588;SDS011;34369;51.174;6.738;2022-09-09T14:54:01;18.08;;;16.67;;
48588;SDS011;34369;51.174;6.738;2022-09-09T14:56:34;19.50;;;17.85;;
48588;SDS011;34369;51.174;6.738;2022-09-09T14:59:06;19.70;;;18.10;;
48588;SDS011;34369;51.174;6.738;2022-09-09T15:01:39;19.80;;;18.30;;
48588;SDS011;34369;51.174;6.738;2022-09-09T15:04:12;19.55;;;17.70;;
48588;SDS011;34369;51.174;6.738;2022-09-09T15:06:46;19.27;;;17.67;;
48588;SDS011;34369;51.174;6.738;2022-09-09T15:09:21;19.40;;;17.95;;
48588;SDS011;34369;51.174;6.738;2022-09-09T15:12:00;19.67;;;18.27;;
48588;SDS011;34369;51.174;6.738;2022-09-09T15:14:33;19.70;;;18.20;;
48588;SDS011;34369;51.174;6.738;2022-09-09T15:17:08;19.70;;;18.10;;
48588;SDS011;34369;51.174;6.738;2022-09-09T15:19:41;19.27;;;17.88;;
48588;SDS011;34369;51.174;6.738;2022-09-09T15:22:13;19.38;;;17.75;;
48588;SDS011;34369;51.174;6.738;2022-09-09T15:24:47;18.95;;;17.55;;
48588;SDS011;34369;51.174;6.738;2022-09-09T15:27:19;19.33;;;17.80;;
48588;SDS011;34369;51.174;6.738;2022-09-09T15:29:51;18.90;;;17.50;;
48588;SDS011;34369;51.174;6.738;2022-09-09T15:32:23;19.77;;;18.17;;
48588;SDS011;34369;51.174;6.738;2022-09-09T15:34:57;19.13;;;17.63;;
48588;SDS011;34369;51.174;6.738;2022-09-09T15:37:29;19.92;;;18.42;;
48588;SDS011;34369;51.174;6.738;2022-09-09T15:40:03;19.45;;;17.88;;
48588;SDS011;34369;51.174;6.738;2022-09-09T15:42:36;19.58;;;18.00;;
48588;SDS011;34369;51.174;6.738;2022-09-09T15:45:09;19.55;;;17.98;;